sensor_id;sensor_type;location;lat;lon;timestamp;pressure;altitude;pressure_sealevel;temperature;humidity
56006;BME280;41888;44.696;10.522;2024-02-21T00:01:24;100956.16;;;3.89;100.00
56006;BME280;41888;44.696;10.522;2024-02-21T00:03:50;100951.59;;;3.91;100.00
56006;BME280;41888;44.696;10.522;2024-02-21T00:06:16;100948.91;;;4.00;100.00
56006;BME280;41888;44.696;10.522;2024-02-21T00:08:43;100941.28;;;3.97;100.00
56006;BME280;41888;44.696;10.522;2024-02-21T00:11:09;100938.22;;;4.02;100.00
56006;BME280;41888;44.696;10.522;2024-02-21T00:13:35;100944.63;;;4.17;100.00
56006;BME280;41888;44.696;10.522;2024-02-21T00:16:02;100945.66;;;4.24;100.00
56006;BME280;41888;44.696;10.522;2024-02-21T00:18:28;100949.72;;;4.36;100.00
56006;BME280;41888;44.696;10.522;2024-02-21T00:20:54;100949.72;;;4.36;100.00
56006;BME280;41888;44.696;10.522;2024-02-21T00:23:20;100954.28;;;4.34;100.00
56006;BME280;41888;44.696;10.522;2024-02-21T00:25:46;100946.25;;;4.18;100.00
56006;BME280;41888;44.696;10.522;2024-02-21T00:28:12;100948.28;;;4.06;100.00
56006;BME280;41888;44.696;10.522;2024-02-21T00:30:39;100942.34;;;4.04;100.00
56006;BME280;41888;44.696;10.522;2024-02-21T00:33:05;100942.47;;;4.03;100.00
56006;BME280;41888;44.696;10.522;2024-02-21T00:35:31;100940.16;;;4.00;100.00
56006;BME280;41888;44.696;10.522;2024-02-21T00:37:57;100944.75;;;3.98;100.00
56006;BME280;41888;44.696;10.522;2024-02-21T00:40:25;100946.72;;;3.96;100.00
56006;BME280;41888;44.696;10.522;2024-02-21T00:42:51;100939.66;;;3.96;100.00
56006;BME280;41888;44.696;10.522;2024-02-21T00:45:17;100942.69;;;3.92;100.00
56006;BME280;41888;44.696;10.522;2024-02-21T00:47:43;100932.94;;;3.84;100.00
56006;BME280;41888;44.696;10.522;2024-02-21T00:50:10;100942.03;;;3.90;100.00
56006;BME280;41888;44.696;10.522;2024-02-21T00:52:36;100933.44;;;3.88;100.00
56006;BME280;41888;44.696;10.522;2024-02-21T00:55:02;100936.19;;;3.96;100.00
56006;BME280;41888;44.696;10.522;2024-02-21T00:57:29;100935.34;;;3.95;100.00
56006;BME280;41888;44.696;10.522;2024-02-21T00:59:55;100934.28;;;3.88;100.00
56006;BME280;41888;44.696;10.522;2024-02-21T01:02:21;100930.38;;;3.92;100.00
56006;BME280;41888;44.696;10.522;2024-02-21T01:04:47;100935.13;;;3.89;100.00
56006;BME280;41888;44.696;10.522;2024-02-21T01:07:13;100937.06;;;3.87;100.00
56006;BME280;41888;44.696;10.522;2024-02-21T01:09:40;100931.59;;;3.80;100.00
56006;BME280;41888;44.696;10.522;2024-02-21T01:12:06;100932.69;;;3.77;100.00
56006;BME280;41888;44.696;10.522;2024-02-21T01:14:32;100937.06;;;3.87;100.00
56006;BME280;41888;44.696;10.522;2024-02-21T01:16:59;100931.88;;;3.95;100.00
56006;BME280;41888;44.696;10.522;2024-02-21T01:19:25;100935.88;;;3.99;100.00
56006;BME280;41888;44.696;10.522;2024-02-21T01:21:51;100934.00;;;3.91;100.00
56006;BME280;41888;44.696;10.522;2024-02-21T01:24:17;100932.06;;;3.66;100.00
56006;BME280;41888;44.696;10.522;2024-02-21T01:26:43;100941.75;;;3.65;100.00
56006;BME280;41888;44.696;10.522;2024-02-21T01:29:09;100941.28;;;3.79;100.00
56006;BME280;41888;44.696;10.522;2024-02-21T01:31:36;100942.09;;;3.80;100.00
56006;BME280;41888;44.696;10.522;2024-02-21T01:34:02;100938.47;;;3.81;100.00
56006;BME280;41888;44.696;10.522;2024-02-21T01:36:28;100940.91;;;3.92;100.00
56006;BME280;41888;44.696;10.522;2024-02-21T01:38:54;100939.47;;;3.98;100.00
56006;BME280;41888;44.696;10.522;2024-02-21T01:41:20;100942.09;;;3.98;100.00
56006;BME280;41888;44.696;10.522;2024-02-21T01:43:46;100943.63;;;3.55;100.00
56006;BME280;41888;44.696;10.522;2024-02-21T01:46:13;100936.81;;;3.62;100.00
56006;BME280;41888;44.696;10.522;2024-02-21T01:48:39;100934.94;;;3.72;100.00
56006;BME280;41888;44.696;10.522;2024-02-21T01:51:05;100933.44;;;3.70;100.00
56006;BME280;41888;44.696;10.522;2024-02-21T01:53:38;100927.50;;;3.68;100.00
56006;BME280;41888;44.696;10.522;2024-02-21T01:56:07;100920.63;;;3.57;100.00
56006;BME280;41888;44.696;10.522;2024-02-21T01:58:34;100924.47;;;3.63;100.00
56006;BME280;41888;44.696;10.522;2024-02-21T02:01:03;100932.63;;;3.42;100.00
56006;BME280;41888;44.696;10.522;2024-02-21T02:03:29;100931.03;;;3.59;100.00
56006;BME280;41888;44.696;10.522;2024-02-21T02:05:56;100930.03;;;3.60;100.00
56006;BME280;41888;44.696;10.522;2024-02-21T02:08:22;100925.41;;;3.17;100.00
56006;BME280;41888;44.696;10.522;2024-02-21T02:10:49;100922.00;;;3.07;100.00
56006;BME280;41888;44.696;10.522;2024-02-21T02:13:15;100916.75;;;3.07;100.00
56006;BME280;41888;44.696;10.522;2024-02-21T02:15:42;100911.53;;;2.87;100.00
56006;BME280;41888;44.696;10.522;2024-02-21T02:18:09;100909.47;;;2.81;100.00
56006;BME280;41888;44.696;10.522;2024-02-21T02:20:36;100901.34;;;2.75;100.00
56006;BME280;41888;44.696;10.522;2024-02-21T02:23:51;100906.84;;;2.81;100.00
56006;BME280;41888;44.696;10.522;2024-02-21T02:25:58;100901.75;;;2.80;100.00
56006;BME280;41888;44.696;10.522;2024-02-21T02:28:25;100906.44;;;2.76;100.00
56006;BME280;41888;44.696;10.522;2024-02-21T02:30:51;100901.75;;;2.70;100.00
56006;BME280;41888;44.696;10.522;2024-02-21T02:33:17;100897.75;;;2.66;100.00
56006;BME280;41888;44.696;10.522;2024-02-21T02:35:44;100901.34;;;2.75;100.00
56006;BME280;41888;44.696;10.522;2024-02-21T02:38:10;100898.34;;;2.60;100.00
56006;BME280;41888;44.696;10.522;2024-02-21T02:40:38;100899.47;;;2.58;100.00
56006;BME280;41888;44.696;10.522;2024-02-21T02:43:06;100891.09;;;2.81;100.00
56006;BME280;41888;44.696;10.522;2024-02-21T02:45:32;100901.53;;;3.01;100.00
56006;BME280;41888;44.696;10.522;2024-02-21T02:47:59;100902.56;;;2.90;100.00
56006;BME280;41888;44.696;10.522;2024-02-21T02:50:26;100900.59;;;2.92;100.00
56006;BME280;41888;44.696;10.522;2024-02-21T02:52:53;100896.56;;;2.97;100.00
56006;BME280;41888;44.696;10.522;2024-02-21T02:55:20;100894.09;;;2.96;100.00
56006;BME280;41888;44.696;10.522;2024-02-21T02:57:46;100890.72;;;2.67;100.00
56006;BME280;41888;44.696;10.522;2024-02-21T03:00:13;100888.88;;;2.21;100.00
56006;BME280;41888;44.696;10.522;2024-02-21T03:02:42;100881.53;;;2.34;100.00
56006;BME280;41888;44.696;10.522;2024-02-21T03:05:19;100884.56;;;2.48;100.00
56006;BME280;41888;44.696;10.522;2024-02-21T03:07:45;100885.72;;;2.73;100.00
56006;BME280;41888;44.696;10.522;2024-02-21T03:10:12;100884.56;;;2.95;100.00
56006;BME280;41888;44.696;10.522;2024-02-21T03:12:39;100878.47;;;2.94;100.00
56006;BME280;41888;44.696;10.522;2024-02-21T03:15:06;100877.09;;;2.90;100.00
56006;BME280;41888;44.696;10.522;2024-02-21T03:17:33;100881.75;;;3.06;100.00
56006;BME280;41888;44.696;10.522;2024-02-21T03:20:03;100884.00;;;3.19;100.00
56006;BME280;41888;44.696;10.522;2024-02-21T03:22:34;100888.81;;;3.33;100.00
56006;BME280;41888;44.696;10.522;2024-02-21T03:25:00;100888.69;;;3.25;100.00
56006;BME280;41888;44.696;10.522;2024-02-21T03:27:27;100883.81;;;3.03;100.00
56006;BME280;41888;44.696;10.522;2024-02-21T03:29:53;100885.91;;;2.99;100.00
56006;BME280;41888;44.696;10.522;2024-02-21T03:32:19;100892.66;;;3.02;100.00
56006;BME280;41888;44.696;10.522;2024-02-21T03:34:46;100888.19;;;2.84;100.00
56006;BME280;41888;44.696;10.522;2024-02-21T03:37:12;100891.13;;;2.72;100.00
56006;BME280;41888;44.696;10.522;2024-02-21T03:39:40;100905.94;;;2.63;100.00
56006;BME280;41888;44.696;10.522;2024-02-21T03:42:06;100900.31;;;2.39;100.00
56006;BME280;41888;44.696;10.522;2024-02-21T03:44:33;100906.69;;;2.36;100.00
56006;BME280;41888;44.696;10.522;2024-02-21T03:46:59;100904.47;;;2.32;100.00
56006;BME280;41888;44.696;10.522;2024-02-21T03:49:26;100914.66;;;2.44;100.00
56006;BME280;41888;44.696;10.522;2024-02-21T03:51:52;100914.13;;;2.41;100.00
56006;BME280;41888;44.696;10.522;2024-02-21T03:54:19;100911.66;;;2.20;100.00
56006;BME280;41888;44.696;10.522;2024-02-21T03:56:45;100910.84;;;2.10;100.00
56006;BME280;41888;44.696;10.522;2024-02-21T03:59:13;100910.28;;;2.16;100.00
56006;BME280;41888;44.696;10.522;2024-02-21T04:01:39;100908.63;;;2.25;100.00
56006;BME280;41888;44.696;10.522;2024-02-21T04:04:06;100902.25;;;2.18;100.00
56006;BME280;41888;44.696;10.522;2024-02-21T04:06:32;100904.47;;;2.12;100.00
56006;BME280;41888;44.696;10.522;2024-02-21T04:08:58;100911.53;;;2.02;100.00
56006;BME280;41888;44.696;10.522;2024-02-21T04:11:25;100906.69;;;1.88;100.00
56006;BME280;41888;44.696;10.522;2024-02-21T04:13:51;100914.41;;;1.80;100.00
56006;BME280;41888;44.696;10.522;2024-02-21T04:16:18;100906.94;;;1.85;100.00
56006;BME280;41888;44.696;10.522;2024-02-21T04:18:44;100913.19;;;1.94;100.00
56006;BME280;41888;44.696;10.522;2024-02-21T04:21:14;100910.28;;;1.87;100.00
56006;BME280;41888;44.696;10.522;2024-02-21T04:23:40;100914.69;;;1.96;100.00
56006;BME280;41888;44.696;10.522;2024-02-21T04:26:06;100904.91;;;1.79;100.00
56006;BME280;41888;44.696;10.522;2024-02-21T04:28:32;100908.06;;;1.73;100.00
56006;BME280;41888;44.696;10.522;2024-02-21T04:30:58;100903.88;;;1.61;100.00
56006;BME280;41888;44.696;10.522;2024-02-21T04:33:24;100898.09;;;1.67;100.00
56006;BME280;41888;44.696;10.522;2024-02-21T04:35:51;100905.56;;;1.62;100.00
56006;BME280;41888;44.696;10.522;2024-02-21T04:38:17;100907.75;;;1.57;100.00
56006;BME280;41888;44.696;10.522;2024-02-21T04:40:43;100910.69;;;1.63;100.00
56006;BME280;41888;44.696;10.522;2024-02-21T04:43:10;100915.63;;;1.66;100.00
56006;BME280;41888;44.696;10.522;2024-02-21T04:45:36;100908.47;;;1.68;100.00
56006;BME280;41888;44.696;10.522;2024-02-21T04:48:02;100909.16;;;1.70;100.00
56006;BME280;41888;44.696;10.522;2024-02-21T04:50:28;100909.72;;;1.74;100.00
56006;BME280;41888;44.696;10.522;2024-02-21T04:52:54;100915.91;;;1.63;100.00
56006;BME280;41888;44.696;10.522;2024-02-21T04:55:20;100908.44;;;1.59;100.00
56006;BME280;41888;44.696;10.522;2024-02-21T04:57:47;100911.34;;;1.75;100.00
56006;BME280;41888;44.696;10.522;2024-02-21T05:00:13;100917.31;;;1.67;100.00
56006;BME280;41888;44.696;10.522;2024-02-21T05:02:39;100918.06;;;1.39;100.00
56006;BME280;41888;44.696;10.522;2024-02-21T05:05:06;100922.78;;;1.55;100.00
56006;BME280;41888;44.696;10.522;2024-02-21T05:07:32;100927.09;;;1.65;100.00
56006;BME280;41888;44.696;10.522;2024-02-21T05:09:58;100926.13;;;1.76;100.00
56006;BME280;41888;44.696;10.522;2024-02-21T05:12:24;100924.84;;;1.51;100.00
56006;BME280;41888;44.696;10.522;2024-02-21T05:14:51;100930.94;;;1.52;100.00
56006;BME280;41888;44.696;10.522;2024-02-21T05:17:17;100931.50;;;1.65;100.00
56006;BME280;41888;44.696;10.522;2024-02-21T05:19:43;100928.56;;;1.49;100.00
56006;BME280;41888;44.696;10.522;2024-02-21T05:22:09;100923.41;;;1.28;100.00
56006;BME280;41888;44.696;10.522;2024-02-21T05:24:35;100929.88;;;1.24;100.00
56006;BME280;41888;44.696;10.522;2024-02-21T05:27:02;100936.28;;;1.41;100.00
56006;BME280;41888;44.696;10.522;2024-02-21T05:29:28;100930.59;;;1.36;100.00
56006;BME280;41888;44.696;10.522;2024-02-21T05:31:55;100936.50;;;1.28;100.00
56006;BME280;41888;44.696;10.522;2024-02-21T05:34:24;100935.75;;;1.16;100.00
56006;BME280;41888;44.696;10.522;2024-02-21T05:36:51;100933.53;;;1.12;100.00
56006;BME280;41888;44.696;10.522;2024-02-21T05:39:18;100937.06;;;1.01;100.00
56006;BME280;41888;44.696;10.522;2024-02-21T05:41:45;100937.91;;;1.02;100.00
56006;BME280;41888;44.696;10.522;2024-02-21T05:44:11;100923.03;;;1.02;100.00
56006;BME280;41888;44.696;10.522;2024-02-21T05:46:38;100926.19;;;0.75;100.00
56006;BME280;41888;44.696;10.522;2024-02-21T05:49:04;100930.91;;;0.81;100.00
56006;BME280;41888;44.696;10.522;2024-02-21T05:51:34;100917.59;;;0.84;100.00
56006;BME280;41888;44.696;10.522;2024-02-21T05:54:01;100928.34;;;0.91;100.00
56006;BME280;41888;44.696;10.522;2024-02-21T05:56:27;100919.41;;;0.94;100.00
56006;BME280;41888;44.696;10.522;2024-02-21T05:58:54;100929.06;;;0.93;100.00
56006;BME280;41888;44.696;10.522;2024-02-21T06:01:20;100924.53;;;0.95;100.00
56006;BME280;41888;44.696;10.522;2024-02-21T06:03:49;100915.00;;;0.94;100.00
56006;BME280;41888;44.696;10.522;2024-02-21T06:06:15;100919.41;;;0.94;100.00
56006;BME280;41888;44.696;10.522;2024-02-21T06:08:42;100917.66;;;0.73;100.00
56006;BME280;41888;44.696;10.522;2024-02-21T06:11:08;100924.34;;;0.87;100.00
56006;BME280;41888;44.696;10.522;2024-02-21T06:13:38;100922.19;;;1.02;100.00
56006;BME280;41888;44.696;10.522;2024-02-21T06:16:08;100921.19;;;0.93;100.00
56006;BME280;41888;44.696;10.522;2024-02-21T06:18:36;100927.00;;;0.97;100.00
56006;BME280;41888;44.696;10.522;2024-02-21T06:21:03;100925.09;;;0.99;100.00
56006;BME280;41888;44.696;10.522;2024-02-21T06:23:30;100926.31;;;0.95;100.00
56006;BME280;41888;44.696;10.522;2024-02-21T06:25:56;100937.63;;;0.95;100.00
56006;BME280;41888;44.696;10.522;2024-02-21T06:28:22;100941.47;;;1.01;100.00
56006;BME280;41888;44.696;10.522;2024-02-21T06:30:48;100941.19;;;0.94;100.00
56006;BME280;41888;44.696;10.522;2024-02-21T06:33:14;100948.97;;;1.05;100.00
56006;BME280;41888;44.696;10.522;2024-02-21T06:35:40;100950.63;;;1.06;100.00
56006;BME280;41888;44.696;10.522;2024-02-21T06:38:08;100945.34;;;0.97;100.00
56006;BME280;41888;44.696;10.522;2024-02-21T06:40:35;100952.28;;;1.07;100.00
56006;BME280;41888;44.696;10.522;2024-02-21T06:43:05;100954.66;;;1.10;100.00
56006;BME280;41888;44.696;10.522;2024-02-21T06:45:31;100952.94;;;1.30;100.00
56006;BME280;41888;44.696;10.522;2024-02-21T06:47:57;100954.75;;;1.39;100.00
56006;BME280;41888;44.696;10.522;2024-02-21T06:50:24;100957.63;;;1.76;100.00
56006;BME280;41888;44.696;10.522;2024-02-21T06:52:50;100960.72;;;2.00;100.00
56006;BME280;41888;44.696;10.522;2024-02-21T06:55:16;100963.06;;;2.03;100.00
56006;BME280;41888;44.696;10.522;2024-02-21T06:57:43;100965.00;;;2.40;100.00
56006;BME280;41888;44.696;10.522;2024-02-21T07:00:09;100964.06;;;2.97;100.00
56006;BME280;41888;44.696;10.522;2024-02-21T07:02:35;100969.31;;;3.07;100.00
56006;BME280;41888;44.696;10.522;2024-02-21T07:05:02;100975.16;;;2.81;100.00
56006;BME280;41888;44.696;10.522;2024-02-21T07:07:28;100969.91;;;2.81;100.00
56006;BME280;41888;44.696;10.522;2024-02-21T07:09:55;100970.84;;;3.00;100.00
56006;BME280;41888;44.696;10.522;2024-02-21T07:12:21;100975.25;;;3.46;100.00
56006;BME280;41888;44.696;10.522;2024-02-21T07:14:47;100984.53;;;3.95;100.00
56006;BME280;41888;44.696;10.522;2024-02-21T07:17:14;100982.00;;;4.20;100.00
56006;BME280;41888;44.696;10.522;2024-02-21T07:19:40;100989.81;;;4.30;100.00
56006;BME280;41888;44.696;10.522;2024-02-21T07:22:06;100988.56;;;4.16;100.00
56006;BME280;41888;44.696;10.522;2024-02-21T07:24:32;100988.78;;;4.41;100.00
56006;BME280;41888;44.696;10.522;2024-02-21T07:26:58;100988.38;;;4.18;100.00
56006;BME280;41888;44.696;10.522;2024-02-21T07:29:30;100990.75;;;4.39;100.00
56006;BME280;41888;44.696;10.522;2024-02-21T07:31:56;100992.13;;;4.68;100.00
56006;BME280;41888;44.696;10.522;2024-02-21T07:34:23;100978.72;;;4.80;100.00
56006;BME280;41888;44.696;10.522;2024-02-21T07:36:49;100980.84;;;5.02;100.00
56006;BME280;41888;44.696;10.522;2024-02-21T07:39:15;100979.81;;;5.29;100.00
56006;BME280;41888;44.696;10.522;2024-02-21T07:41:42;100980.50;;;5.31;100.00
56006;BME280;41888;44.696;10.522;2024-02-21T07:44:10;100987.19;;;5.43;100.00
56006;BME280;41888;44.696;10.522;2024-02-21T07:46:37;100988.78;;;5.36;100.00
56006;BME280;41888;44.696;10.522;2024-02-21T07:49:03;100999.53;;;5.42;100.00
56006;BME280;41888;44.696;10.522;2024-02-21T07:51:29;101001.84;;;5.79;100.00
56006;BME280;41888;44.696;10.522;2024-02-21T07:53:55;101008.91;;;6.13;100.00
56006;BME280;41888;44.696;10.522;2024-02-21T07:56:21;101005.81;;;6.33;100.00
56006;BME280;41888;44.696;10.522;2024-02-21T07:58:48;101013.25;;;6.62;100.00
56006;BME280;41888;44.696;10.522;2024-02-21T08:01:19;101021.03;;;6.80;100.00
56006;BME280;41888;44.696;10.522;2024-02-21T08:03:48;101015.41;;;6.99;100.00
56006;BME280;41888;44.696;10.522;2024-02-21T08:06:14;101015.88;;;7.19;100.00
56006;BME280;41888;44.696;10.522;2024-02-21T08:08:41;101014.34;;;7.25;100.00
56006;BME280;41888;44.696;10.522;2024-02-21T08:11:07;101023.28;;;7.32;100.00
56006;BME280;41888;44.696;10.522;2024-02-21T08:13:33;101016.13;;;7.40;100.00
56006;BME280;41888;44.696;10.522;2024-02-21T08:15:59;101011.81;;;7.55;100.00
56006;BME280;41888;44.696;10.522;2024-02-21T08:18:26;101018.44;;;7.90;100.00
56006;BME280;41888;44.696;10.522;2024-02-21T08:20:52;101033.31;;;8.30;100.00
56006;BME280;41888;44.696;10.522;2024-02-21T08:23:19;101042.28;;;8.52;100.00
56006;BME280;41888;44.696;10.522;2024-02-21T08:25:45;101048.47;;;8.90;100.00
56006;BME280;41888;44.696;10.522;2024-02-21T08:28:12;101057.97;;;9.22;100.00
56006;BME280;41888;44.696;10.522;2024-02-21T08:30:39;101057.28;;;9.43;100.00
56006;BME280;41888;44.696;10.522;2024-02-21T08:33:05;101059.03;;;9.65;100.00
56006;BME280;41888;44.696;10.522;2024-02-21T08:35:31;101059.41;;;9.77;100.00
56006;BME280;41888;44.696;10.522;2024-02-21T08:37:57;101063.59;;;9.86;100.00
56006;BME280;41888;44.696;10.522;2024-02-21T08:40:23;101057.72;;;10.05;100.00
56006;BME280;41888;44.696;10.522;2024-02-21T08:42:50;101055.13;;;10.41;100.00
56006;BME280;41888;44.696;10.522;2024-02-21T08:45:16;101054.88;;;10.78;100.00
56006;BME280;41888;44.696;10.522;2024-02-21T08:47:42;101059.00;;;11.30;100.00
56006;BME280;41888;44.696;10.522;2024-02-21T08:50:09;101056.56;;;12.04;100.00
56006;BME280;41888;44.696;10.522;2024-02-21T08:52:36;101058.56;;;12.49;100.00
56006;BME280;41888;44.696;10.522;2024-02-21T08:55:02;101057.56;;;12.70;100.00
56006;BME280;41888;44.696;10.522;2024-02-21T08:57:28;101061.72;;;13.05;100.00
56006;BME280;41888;44.696;10.522;2024-02-21T08:59:54;101053.06;;;13.56;100.00
56006;BME280;41888;44.696;10.522;2024-02-21T09:02:21;101054.09;;;14.13;94.72
56006;BME280;41888;44.696;10.522;2024-02-21T09:04:47;101064.03;;;14.82;86.24
56006;BME280;41888;44.696;10.522;2024-02-21T09:07:13;101065.06;;;14.80;79.20
56006;BME280;41888;44.696;10.522;2024-02-21T09:09:39;101061.84;;;14.41;80.26
56006;BME280;41888;44.696;10.522;2024-02-21T09:12:07;101063.63;;;14.85;75.02
56006;BME280;41888;44.696;10.522;2024-02-21T09:14:34;101064.00;;;15.13;68.52
56006;BME280;41888;44.696;10.522;2024-02-21T09:17:00;101061.38;;;15.31;70.81
56006;BME280;41888;44.696;10.522;2024-02-21T09:19:26;101063.75;;;15.21;67.61
56006;BME280;41888;44.696;10.522;2024-02-21T09:21:52;101062.06;;;16.06;67.30
56006;BME280;41888;44.696;10.522;2024-02-21T09:24:18;101072.53;;;17.39;60.21
56006;BME280;41888;44.696;10.522;2024-02-21T09:26:45;101079.78;;;17.50;58.09
56006;BME280;41888;44.696;10.522;2024-02-21T09:29:11;101077.50;;;17.00;60.22
56006;BME280;41888;44.696;10.522;2024-02-21T09:31:38;101063.94;;;15.69;64.79
56006;BME280;41888;44.696;10.522;2024-02-21T09:34:04;101075.31;;;15.40;64.91
56006;BME280;41888;44.696;10.522;2024-02-21T09:36:31;101063.38;;;16.15;63.92
56006;BME280;41888;44.696;10.522;2024-02-21T09:38:57;101072.53;;;16.74;59.55
56006;BME280;41888;44.696;10.522;2024-02-21T09:41:27;101070.25;;;16.11;62.85
56006;BME280;41888;44.696;10.522;2024-02-21T09:43:54;101056.84;;;14.00;69.74
56006;BME280;41888;44.696;10.522;2024-02-21T09:46:45;101045.31;;;13.22;75.48
56006;BME280;41888;44.696;10.522;2024-02-21T09:49:31;101055.47;;;15.47;69.57
56006;BME280;41888;44.696;10.522;2024-02-21T09:52:04;101047.53;;;16.43;62.63
56006;BME280;41888;44.696;10.522;2024-02-21T09:54:32;101052.22;;;16.00;64.69
56006;BME280;41888;44.696;10.522;2024-02-21T09:57:02;101049.31;;;16.01;63.93
56006;BME280;41888;44.696;10.522;2024-02-21T09:59:30;101048.84;;;16.94;60.26
56006;BME280;41888;44.696;10.522;2024-02-21T10:01:57;101052.97;;;17.31;58.39
56006;BME280;41888;44.696;10.522;2024-02-21T10:04:25;101049.69;;;17.41;58.03
56006;BME280;41888;44.696;10.522;2024-02-21T10:06:53;101047.91;;;18.33;55.34
56006;BME280;41888;44.696;10.522;2024-02-21T10:09:29;101050.13;;;17.96;55.54
56006;BME280;41888;44.696;10.522;2024-02-21T10:11:56;101046.28;;;18.77;53.93
56006;BME280;41888;44.696;10.522;2024-02-21T10:14:33;101052.28;;;19.13;51.43
56006;BME280;41888;44.696;10.522;2024-02-21T10:16:59;101049.47;;;17.31;56.19
56006;BME280;41888;44.696;10.522;2024-02-21T10:19:25;101048.75;;;17.82;55.78
56006;BME280;41888;44.696;10.522;2024-02-21T10:22:10;101048.84;;;19.01;50.96
56006;BME280;41888;44.696;10.522;2024-02-21T10:24:37;101042.59;;;16.59;58.82
56006;BME280;41888;44.696;10.522;2024-02-21T10:27:10;101037.41;;;14.62;67.50
56006;BME280;41888;44.696;10.522;2024-02-21T10:29:40;101042.63;;;16.82;61.64
56006;BME280;41888;44.696;10.522;2024-02-21T10:32:10;101040.25;;;17.62;58.62
56006;BME280;41888;44.696;10.522;2024-02-21T10:34:38;101042.06;;;18.81;53.89
56006;BME280;41888;44.696;10.522;2024-02-21T10:37:06;101036.44;;;18.26;53.43
56006;BME280;41888;44.696;10.522;2024-02-21T10:39:34;101039.69;;;18.40;54.30
56006;BME280;41888;44.696;10.522;2024-02-21T10:42:02;101044.41;;;18.78;52.31
56006;BME280;41888;44.696;10.522;2024-02-21T10:44:33;101038.78;;;18.34;53.74
56006;BME280;41888;44.696;10.522;2024-02-21T10:46:59;101038.03;;;18.10;53.62
56006;BME280;41888;44.696;10.522;2024-02-21T10:49:30;101046.22;;;19.22;51.06
56006;BME280;41888;44.696;10.522;2024-02-21T10:54:49;101053.22;;;18.17;52.81
56006;BME280;41888;44.696;10.522;2024-02-21T10:57:19;101054.31;;;19.06;50.84
56006;BME280;41888;44.696;10.522;2024-02-21T10:59:46;101047.03;;;19.23;51.20
56006;BME280;41888;44.696;10.522;2024-02-21T11:02:14;101048.78;;;19.67;48.64
56006;BME280;41888;44.696;10.522;2024-02-21T11:04:42;101039.06;;;19.66;49.21
56006;BME280;41888;44.696;10.522;2024-02-21T11:07:09;101035.69;;;19.76;47.96
56006;BME280;41888;44.696;10.522;2024-02-21T11:09:35;101032.91;;;19.16;50.27
56006;BME280;41888;44.696;10.522;2024-02-21T11:12:06;101032.53;;;19.62;48.85
56006;BME280;41888;44.696;10.522;2024-02-21T11:14:33;101027.56;;;19.54;48.58
56006;BME280;41888;44.696;10.522;2024-02-21T11:17:15;101023.50;;;19.35;49.13
56006;BME280;41888;44.696;10.522;2024-02-21T11:19:42;101009.66;;;20.35;46.40
56006;BME280;41888;44.696;10.522;2024-02-21T11:22:18;101009.44;;;18.99;49.66
56006;BME280;41888;44.696;10.522;2024-02-21T11:24:45;101005.97;;;19.37;48.80
56006;BME280;41888;44.696;10.522;2024-02-21T11:27:16;100998.09;;;17.79;52.67
56006;BME280;41888;44.696;10.522;2024-02-21T11:29:46;100994.47;;;19.25;49.96
56006;BME280;41888;44.696;10.522;2024-02-21T11:32:17;100988.50;;;19.40;49.64
56006;BME280;41888;44.696;10.522;2024-02-21T11:35:02;100988.44;;;19.18;50.02
56006;BME280;41888;44.696;10.522;2024-02-21T11:37:33;100977.53;;;19.90;48.63
56006;BME280;41888;44.696;10.522;2024-02-21T11:40:00;100970.88;;;19.76;48.41
56006;BME280;41888;44.696;10.522;2024-02-21T11:42:27;100973.66;;;19.81;49.28
56006;BME280;41888;44.696;10.522;2024-02-21T11:44:55;100963.63;;;19.38;49.19
56006;BME280;41888;44.696;10.522;2024-02-21T11:47:25;100960.81;;;20.20;48.47
56006;BME280;41888;44.696;10.522;2024-02-21T11:49:51;100959.16;;;19.65;49.51
56006;BME280;41888;44.696;10.522;2024-02-21T11:52:24;100950.13;;;19.38;50.98
56006;BME280;41888;44.696;10.522;2024-02-21T11:54:51;100951.94;;;19.71;49.35
56006;BME280;41888;44.696;10.522;2024-02-21T11:57:22;100951.84;;;19.44;50.05
56006;BME280;41888;44.696;10.522;2024-02-21T11:59:49;100939.38;;;18.66;52.32
56006;BME280;41888;44.696;10.522;2024-02-21T12:02:18;100935.13;;;18.87;52.04
56006;BME280;41888;44.696;10.522;2024-02-21T12:04:45;100925.19;;;18.26;52.65
56006;BME280;41888;44.696;10.522;2024-02-21T12:07:11;100920.84;;;18.25;54.27
56006;BME280;41888;44.696;10.522;2024-02-21T12:09:37;100920.13;;;19.13;52.14
56006;BME280;41888;44.696;10.522;2024-02-21T12:12:04;100923.31;;;18.93;52.14
56006;BME280;41888;44.696;10.522;2024-02-21T12:14:32;100913.72;;;17.73;55.78
56006;BME280;41888;44.696;10.522;2024-02-21T12:16:59;100917.44;;;18.12;56.02
56006;BME280;41888;44.696;10.522;2024-02-21T12:19:30;100908.31;;;18.47;55.38
56006;BME280;41888;44.696;10.522;2024-02-21T12:21:58;100909.47;;;18.68;54.52
56006;BME280;41888;44.696;10.522;2024-02-21T12:24:26;100909.63;;;19.55;52.20
56006;BME280;41888;44.696;10.522;2024-02-21T12:26:53;100905.28;;;19.75;50.44
56006;BME280;41888;44.696;10.522;2024-02-21T12:29:20;100904.44;;;18.93;53.12
56006;BME280;41888;44.696;10.522;2024-02-21T12:31:46;100910.22;;;19.18;52.60
56006;BME280;41888;44.696;10.522;2024-02-21T12:34:14;100908.25;;;19.35;52.29
56006;BME280;41888;44.696;10.522;2024-02-21T12:36:44;100890.53;;;18.29;54.79
56006;BME280;41888;44.696;10.522;2024-02-21T12:39:11;100894.34;;;18.33;54.61
56006;BME280;41888;44.696;10.522;2024-02-21T12:41:38;100885.03;;;17.79;57.18
56006;BME280;41888;44.696;10.522;2024-02-21T12:44:05;100878.25;;;17.48;59.05